sensor_id;sensor_type;location;lat;lon;timestamp;P1;durP1;ratioP1;P2;durP2;ratioP2
23009;SDS011;11671;49.990;8.028;2022-11-15T00:01:43;23.60;;;15.80;;
23009;SDS011;11671;49.990;8.028;2022-11-15T00:06:35;22.88;;;15.82;;
23009;SDS011;11671;49.990;8.028;2022-11-15T00:11:26;21.42;;;15.90;;
23009;SDS011;11671;49.990;8.028;2022-11-15T00:16:22;27.80;;;17.08;;
23009;SDS011;11671;49.990;8.028;2022-11-15T00:18:48;25.48;;;15.80;;
23009;SDS011;11671;49.990;8.028;2022-11-15T00:23:39;25.15;;;16.77;;
23009;SDS011;11671;49.990;8.028;2022-11-15T00:28:31;25.88;;;16.20;;
23009;SDS011;11671;49.990;8.028;2022-11-15T00:33:27;28.58;;;17.73;;
23009;SDS011;11671;49.990;8.028;2022-11-15T00:35:53;27.45;;;17.23;;
23009;SDS011;11671;49.990;8.028;2022-11-15T00:38:24;27.17;;;16.50;;
23009;SDS011;11671;49.990;8.028;2022-11-15T00:43:15;29.88;;;17.60;;
23009;SDS011;11671;49.990;8.028;2022-11-15T00:48:06;23.88;;;14.82;;
23009;SDS011;11671;49.990;8.028;2022-11-15T00:50:32;22.13;;;14.90;;
23009;SDS011;11671;49.990;8.028;2022-11-15T00:55:23;25.27;;;14.68;;
23009;SDS011;11671;49.990;8.028;2022-11-15T01:00:14;24.77;;;15.48;;
23009;SDS011;11671;49.990;8.028;2022-11-15T01:05:05;22.48;;;15.20;;
23009;SDS011;11671;49.990;8.028;2022-11-15T01:07:32;24.20;;;15.20;;
23009;SDS011;11671;49.990;8.028;2022-11-15T01:12:23;22.25;;;15.23;;
23009;SDS011;11671;49.990;8.028;2022-11-15T01:17:14;26.52;;;15.65;;
23009;SDS011;11671;49.990;8.028;2022-11-15T01:22:05;25.58;;;16.10;;
23009;SDS011;11671;49.990;8.028;2022-11-15T01:26:56;27.23;;;16.90;;
23009;SDS011;11671;49.990;8.028;2022-11-15T01:31:48;27.15;;;16.63;;
23009;SDS011;11671;49.990;8.028;2022-11-15T01:36:40;31.80;;;16.27;;
23009;SDS011;11671;49.990;8.028;2022-11-15T01:41:32;25.55;;;15.40;;
23009;SDS011;11671;49.990;8.028;2022-11-15T01:47:02;22.20;;;15.85;;
23009;SDS011;11671;49.990;8.028;2022-11-15T01:49:32;21.77;;;14.98;;
23009;SDS011;11671;49.990;8.028;2022-11-15T01:52:00;25.42;;;15.18;;
23009;SDS011;11671;49.990;8.028;2022-11-15T01:54:28;26.45;;;16.23;;
23009;SDS011;11671;49.990;8.028;2022-11-15T01:56:59;21.15;;;14.95;;
23009;SDS011;11671;49.990;8.028;2022-11-15T01:59:29;23.73;;;14.95;;
23009;SDS011;11671;49.990;8.028;2022-11-15T02:04:24;21.33;;;14.07;;
23009;SDS011;11671;49.990;8.028;2022-11-15T02:06:51;22.08;;;15.07;;
23009;SDS011;11671;49.990;8.028;2022-11-15T02:11:43;25.00;;;15.68;;
23009;SDS011;11671;49.990;8.028;2022-11-15T02:14:10;22.30;;;15.27;;
23009;SDS011;11671;49.990;8.028;2022-11-15T02:16:46;27.02;;;15.18;;
23009;SDS011;11671;49.990;8.028;2022-11-15T02:22:20;24.75;;;14.88;;
23009;SDS011;11671;49.990;8.028;2022-11-15T02:34:10;20.92;;;14.02;;
23009;SDS011;11671;49.990;8.028;2022-11-15T02:39:10;25.08;;;14.43;;
23009;SDS011;11671;49.990;8.028;2022-11-15T02:44:21;27.55;;;15.63;;
23009;SDS011;11671;49.990;8.028;2022-11-15T02:46:52;23.15;;;14.35;;
23009;SDS011;11671;49.990;8.028;2022-11-15T02:49:49;25.67;;;15.45;;
23009;SDS011;11671;49.990;8.028;2022-11-15T02:52:19;20.90;;;14.07;;
23009;SDS011;11671;49.990;8.028;2022-11-15T02:54:55;23.05;;;15.68;;
23009;SDS011;11671;49.990;8.028;2022-11-15T02:57:45;25.73;;;15.20;;
23009;SDS011;11671;49.990;8.028;2022-11-15T03:00:17;25.63;;;15.75;;
23009;SDS011;11671;49.990;8.028;2022-11-15T03:08:17;25.40;;;14.50;;
23009;SDS011;11671;49.990;8.028;2022-11-15T03:11:10;30.10;;;15.32;;
23009;SDS011;11671;49.990;8.028;2022-11-15T03:16:30;23.17;;;15.43;;
23009;SDS011;11671;49.990;8.028;2022-11-15T03:19:14;23.40;;;15.13;;
23009;SDS011;11671;49.990;8.028;2022-11-15T03:21:59;28.50;;;16.27;;
23009;SDS011;11671;49.990;8.028;2022-11-15T03:24:28;25.95;;;16.08;;
23009;SDS011;11671;49.990;8.028;2022-11-15T03:26:56;25.08;;;15.77;;
23009;SDS011;11671;49.990;8.028;2022-11-15T03:29:25;22.58;;;14.77;;
23009;SDS011;11671;49.990;8.028;2022-11-15T03:31:56;23.52;;;14.63;;
23009;SDS011;11671;49.990;8.028;2022-11-15T03:34:32;25.55;;;15.27;;
23009;SDS011;11671;49.990;8.028;2022-11-15T03:37:02;27.55;;;15.02;;
23009;SDS011;11671;49.990;8.028;2022-11-15T03:39:30;27.08;;;13.98;;
23009;SDS011;11671;49.990;8.028;2022-11-15T03:44:34;21.05;;;13.52;;
23009;SDS011;11671;49.990;8.028;2022-11-15T03:47:11;24.63;;;13.73;;
23009;SDS011;11671;49.990;8.028;2022-11-15T03:49:43;26.23;;;14.52;;
23009;SDS011;11671;49.990;8.028;2022-11-15T03:52:16;22.33;;;14.43;;
23009;SDS011;11671;49.990;8.028;2022-11-15T03:54:48;27.38;;;15.25;;
23009;SDS011;11671;49.990;8.028;2022-11-15T03:57:20;26.63;;;15.38;;
23009;SDS011;11671;49.990;8.028;2022-11-15T04:02:12;24.58;;;15.07;;
23009;SDS011;11671;49.990;8.028;2022-11-15T04:04:38;24.65;;;14.07;;
23009;SDS011;11671;49.990;8.028;2022-11-15T04:09:29;21.10;;;15.07;;
23009;SDS011;11671;49.990;8.028;2022-11-15T04:14:20;28.83;;;14.68;;
23009;SDS011;11671;49.990;8.028;2022-11-15T04:19:11;29.08;;;14.98;;
23009;SDS011;11671;49.990;8.028;2022-11-15T04:21:56;22.60;;;14.80;;
23009;SDS011;11671;49.990;8.028;2022-11-15T04:24:40;27.80;;;15.38;;
23009;SDS011;11671;49.990;8.028;2022-11-15T04:29:31;22.05;;;14.38;;
23009;SDS011;11671;49.990;8.028;2022-11-15T04:32:00;21.77;;;15.05;;
23009;SDS011;11671;49.990;8.028;2022-11-15T04:34:30;27.42;;;14.38;;
23009;SDS011;11671;49.990;8.028;2022-11-15T04:36:56;27.13;;;14.38;;
23009;SDS011;11671;49.990;8.028;2022-11-15T04:39:36;21.42;;;13.75;;
23009;SDS011;11671;49.990;8.028;2022-11-15T04:44:28;21.75;;;14.07;;
23009;SDS011;11671;49.990;8.028;2022-11-15T04:49:19;18.85;;;13.55;;
23009;SDS011;11671;49.990;8.028;2022-11-15T04:54:10;23.08;;;14.65;;
23009;SDS011;11671;49.990;8.028;2022-11-15T04:59:01;27.48;;;13.43;;
23009;SDS011;11671;49.990;8.028;2022-11-15T05:03:52;25.77;;;14.77;;
23009;SDS011;11671;49.990;8.028;2022-11-15T05:06:36;26.48;;;14.68;;
23009;SDS011;11671;49.990;8.028;2022-11-15T05:11:28;24.08;;;14.40;;
23009;SDS011;11671;49.990;8.028;2022-11-15T05:16:19;28.15;;;14.30;;
23009;SDS011;11671;49.990;8.028;2022-11-15T05:21:12;29.23;;;14.50;;
23009;SDS011;11671;49.990;8.028;2022-11-15T05:23:39;27.27;;;16.13;;
23009;SDS011;11671;49.990;8.028;2022-11-15T05:26:06;27.77;;;16.30;;
23009;SDS011;11671;49.990;8.028;2022-11-15T05:28:33;22.90;;;14.35;;
23009;SDS011;11671;49.990;8.028;2022-11-15T05:31:00;26.17;;;15.18;;
23009;SDS011;11671;49.990;8.028;2022-11-15T05:33:26;24.73;;;16.92;;
23009;SDS011;11671;49.990;8.028;2022-11-15T05:38:25;21.30;;;14.57;;
23009;SDS011;11671;49.990;8.028;2022-11-15T05:43:16;24.25;;;15.55;;
23009;SDS011;11671;49.990;8.028;2022-11-15T05:48:08;27.77;;;14.70;;
23009;SDS011;11671;49.990;8.028;2022-11-15T05:50:36;24.90;;;15.75;;
23009;SDS011;11671;49.990;8.028;2022-11-15T05:53:03;26.90;;;15.65;;
23009;SDS011;11671;49.990;8.028;2022-11-15T05:55:30;30.13;;;18.90;;
23009;SDS011;11671;49.990;8.028;2022-11-15T05:57:57;36.40;;;24.40;;
23009;SDS011;11671;49.990;8.028;2022-11-15T06:02:48;28.15;;;17.52;;
23009;SDS011;11671;49.990;8.028;2022-11-15T06:07:39;28.38;;;20.20;;
23009;SDS011;11671;49.990;8.028;2022-11-15T06:12:30;31.30;;;18.45;;
23009;SDS011;11671;49.990;8.028;2022-11-15T06:17:21;37.85;;;19.17;;
23009;SDS011;11671;49.990;8.028;2022-11-15T06:22:12;29.77;;;18.17;;
23009;SDS011;11671;49.990;8.028;2022-11-15T06:27:03;30.42;;;18.10;;
23009;SDS011;11671;49.990;8.028;2022-11-15T06:31:55;28.60;;;16.77;;
23009;SDS011;11671;49.990;8.028;2022-11-15T06:36:46;22.33;;;15.05;;
23009;SDS011;11671;49.990;8.028;2022-11-15T06:41:37;26.85;;;17.45;;
23009;SDS011;11671;49.990;8.028;2022-11-15T06:46:28;21.65;;;16.10;;
23009;SDS011;11671;49.990;8.028;2022-11-15T06:51:19;25.65;;;16.65;;
23009;SDS011;11671;49.990;8.028;2022-11-15T06:53:45;23.30;;;15.80;;
23009;SDS011;11671;49.990;8.028;2022-11-15T06:58:36;24.13;;;15.63;;
23009;SDS011;11671;49.990;8.028;2022-11-15T07:03:33;25.88;;;15.38;;
23009;SDS011;11671;49.990;8.028;2022-11-15T07:06:01;30.98;;;18.33;;
23009;SDS011;11671;49.990;8.028;2022-11-15T07:10:53;33.00;;;18.67;;
23009;SDS011;11671;49.990;8.028;2022-11-15T07:13:19;38.55;;;21.90;;
23009;SDS011;11671;49.990;8.028;2022-11-15T07:18:10;37.08;;;19.30;;
23009;SDS011;11671;49.990;8.028;2022-11-15T07:23:02;29.00;;;16.13;;
23009;SDS011;11671;49.990;8.028;2022-11-15T07:25:28;26.30;;;15.48;;
23009;SDS011;11671;49.990;8.028;2022-11-15T07:30:20;24.38;;;13.93;;
23009;SDS011;11671;49.990;8.028;2022-11-15T07:35:12;25.33;;;14.20;;
23009;SDS011;11671;49.990;8.028;2022-11-15T07:40:03;22.58;;;13.32;;
23009;SDS011;11671;49.990;8.028;2022-11-15T07:45:16;23.67;;;14.55;;
23009;SDS011;11671;49.990;8.028;2022-11-15T07:50:10;22.17;;;13.10;;
23009;SDS011;11671;49.990;8.028;2022-11-15T07:55:01;19.63;;;12.00;;
23009;SDS011;11671;49.990;8.028;2022-11-15T07:57:27;21.35;;;12.40;;
23009;SDS011;11671;49.990;8.028;2022-11-15T07:59:54;18.60;;;12.52;;
23009;SDS011;11671;49.990;8.028;2022-11-15T08:04:45;20.52;;;14.23;;
23009;SDS011;11671;49.990;8.028;2022-11-15T08:09:37;22.15;;;14.52;;
23009;SDS011;11671;49.990;8.028;2022-11-15T08:14:28;26.50;;;14.82;;
23009;SDS011;11671;49.990;8.028;2022-11-15T08:19:19;21.40;;;14.57;;
23009;SDS011;11671;49.990;8.028;2022-11-15T08:24:11;21.20;;;13.95;;
23009;SDS011;11671;49.990;8.028;2022-11-15T08:29:02;18.20;;;12.68;;
23009;SDS011;11671;49.990;8.028;2022-11-15T08:33:53;17.63;;;11.93;;
23009;SDS011;11671;49.990;8.028;2022-11-15T08:38:44;16.83;;;11.00;;
23009;SDS011;11671;49.990;8.028;2022-11-15T08:43:42;19.83;;;11.95;;
23009;SDS011;11671;49.990;8.028;2022-11-15T08:48:36;16.85;;;10.85;;
23009;SDS011;11671;49.990;8.028;2022-11-15T08:53:27;18.63;;;11.70;;
23009;SDS011;11671;49.990;8.028;2022-11-15T08:55:52;15.35;;;11.48;;
23009;SDS011;11671;49.990;8.028;2022-11-15T09:00:43;14.82;;;10.55;;
23009;SDS011;11671;49.990;8.028;2022-11-15T09:05:38;16.98;;;11.75;;
23009;SDS011;11671;49.990;8.028;2022-11-15T09:08:03;19.60;;;12.07;;
23009;SDS011;11671;49.990;8.028;2022-11-15T09:12:56;16.63;;;11.73;;
23009;SDS011;11671;49.990;8.028;2022-11-15T09:15:22;14.95;;;11.15;;
23009;SDS011;11671;49.990;8.028;2022-11-15T09:20:13;16.38;;;11.10;;
23009;SDS011;11671;49.990;8.028;2022-11-15T09:25:05;15.20;;;10.52;;
23009;SDS011;11671;49.990;8.028;2022-11-15T09:27:31;15.40;;;10.68;;
23009;SDS011;11671;49.990;8.028;2022-11-15T09:32:23;16.05;;;10.18;;
23009;SDS011;11671;49.990;8.028;2022-11-15T09:37:14;17.17;;;10.90;;
23009;SDS011;11671;49.990;8.028;2022-11-15T09:42:26;12.57;;;9.55;;
23009;SDS011;11671;49.990;8.028;2022-11-15T09:50:12;16.35;;;10.13;;
23009;SDS011;11671;49.990;8.028;2022-11-15T09:52:42;15.68;;;10.00;;
23009;SDS011;11671;49.990;8.028;2022-11-15T09:55:10;16.95;;;10.15;;
23009;SDS011;11671;49.990;8.028;2022-11-15T10:00:31;14.57;;;9.57;;
23009;SDS011;11671;49.990;8.028;2022-11-15T10:05:40;16.98;;;11.10;;
23009;SDS011;11671;49.990;8.028;2022-11-15T10:10:59;17.58;;;11.10;;
23009;SDS011;11671;49.990;8.028;2022-11-15T10:13:30;16.50;;;10.65;;
23009;SDS011;11671;49.990;8.028;2022-11-15T10:16:33;19.88;;;10.82;;
23009;SDS011;11671;49.990;8.028;2022-11-15T10:24:31;19.23;;;11.00;;
23009;SDS011;11671;49.990;8.028;2022-11-15T10:27:00;17.35;;;10.20;;
23009;SDS011;11671;49.990;8.028;2022-11-15T10:31:51;17.75;;;11.30;;
23009;SDS011;11671;49.990;8.028;2022-11-15T10:36:57;14.60;;;9.38;;
23009;SDS011;11671;49.990;8.028;2022-11-15T10:39:25;18.65;;;10.35;;
23009;SDS011;11671;49.990;8.028;2022-11-15T10:49:52;23.55;;;10.48;;
23009;SDS011;11671;49.990;8.028;2022-11-15T10:52:18;17.70;;;11.82;;
23009;SDS011;11671;49.990;8.028;2022-11-15T10:57:19;17.38;;;11.82;;
23009;SDS011;11671;49.990;8.028;2022-11-15T10:59:55;16.35;;;10.77;;
23009;SDS011;11671;49.990;8.028;2022-11-15T11:02:38;16.83;;;10.88;;
23009;SDS011;11671;49.990;8.028;2022-11-15T11:05:52;16.60;;;11.38;;
23009;SDS011;11671;49.990;8.028;2022-11-15T11:10:53;15.10;;;10.68;;
23009;SDS011;11671;49.990;8.028;2022-11-15T11:13:25;18.58;;;9.70;;
23009;SDS011;11671;49.990;8.028;2022-11-15T11:15:56;13.27;;;9.88;;
23009;SDS011;11671;49.990;8.028;2022-11-15T11:18:47;17.00;;;9.93;;
23009;SDS011;11671;49.990;8.028;2022-11-15T11:21:26;19.20;;;9.50;;
23009;SDS011;11671;49.990;8.028;2022-11-15T11:24:08;16.48;;;10.10;;
23009;SDS011;11671;49.990;8.028;2022-11-15T11:29:54;18.58;;;9.73;;
23009;SDS011;11671;49.990;8.028;2022-11-15T11:35:13;13.98;;;9.07;;
23009;SDS011;11671;49.990;8.028;2022-11-15T11:45:23;20.30;;;9.35;;
23009;SDS011;11671;49.990;8.028;2022-11-15T11:48:14;10.90;;;8.13;;
23009;SDS011;11671;49.990;8.028;2022-11-15T11:50:53;17.80;;;9.67;;
23009;SDS011;11671;49.990;8.028;2022-11-15T11:53:31;14.02;;;9.05;;
23009;SDS011;11671;49.990;8.028;2022-11-15T11:58:55;10.48;;;6.38;;
23009;SDS011;11671;49.990;8.028;2022-11-15T12:01:28;12.90;;;7.60;;
23009;SDS011;11671;49.990;8.028;2022-11-15T12:17:35;13.98;;;8.63;;
23009;SDS011;11671;49.990;8.028;2022-11-15T12:20:13;13.93;;;7.57;;
23009;SDS011;11671;49.990;8.028;2022-11-15T12:22:43;12.90;;;7.43;;
23009;SDS011;11671;49.990;8.028;2022-11-15T12:30:44;13.60;;;8.48;;
23009;SDS011;11671;49.990;8.028;2022-11-15T12:41:26;9.90;;;7.63;;
23009;SDS011;11671;49.990;8.028;2022-11-15T12:44:00;9.65;;;6.78;;
23009;SDS011;11671;49.990;8.028;2022-11-15T13:02:35;8.82;;;6.25;;
23009;SDS011;11671;49.990;8.028;2022-11-15T13:17:53;9.57;;;6.60;;
23009;SDS011;11671;49.990;8.028;2022-11-15T13:23:12;9.85;;;6.05;;
23009;SDS011;11671;49.990;8.028;2022-11-15T13:31:30;11.23;;;6.20;;
23009;SDS011;11671;49.990;8.028;2022-11-15T13:34:16;7.63;;;5.78;;
23009;SDS011;11671;49.990;8.028;2022-11-15T13:36:45;8.00;;;5.45;;
23009;SDS011;11671;49.990;8.028;2022-11-15T13:39:31;10.35;;;6.55;;
23009;SDS011;11671;49.990;8.028;2022-11-15T13:41:59;12.07;;;6.78;;
23009;SDS011;11671;49.990;8.028;2022-11-15T13:49:38;12.27;;;6.60;;
23009;SDS011;11671;49.990;8.028;2022-11-15T13:54:35;19.83;;;7.78;;
23009;SDS011;11671;49.990;8.028;2022-11-15T13:59:47;8.43;;;6.05;;
23009;SDS011;11671;49.990;8.028;2022-11-15T14:02:35;11.10;;;7.00;;
23009;SDS011;11671;49.990;8.028;2022-11-15T14:05:17;8.27;;;6.15;;
23009;SDS011;11671;49.990;8.028;2022-11-15T14:08:20;7.93;;;5.82;;
23009;SDS011;11671;49.990;8.028;2022-11-15T14:10:40;12.55;;;5.65;;
23009;SDS011;11671;49.990;8.028;2022-11-15T14:16:11;11.68;;;7.80;;
23009;SDS011;11671;49.990;8.028;2022-11-15T14:21:08;10.88;;;5.75;;
23009;SDS011;11671;49.990;8.028;2022-11-15T14:23:34;9.82;;;6.05;;
23009;SDS011;11671;49.990;8.028;2022-11-15T14:33:23;11.13;;;5.65;;
23009;SDS011;11671;49.990;8.028;2022-11-15T14:35:57;7.80;;;5.35;;
23009;SDS011;11671;49.990;8.028;2022-11-15T14:38:27;8.02;;;5.90;;
23009;SDS011;11671;49.990;8.028;2022-11-15T14:43:20;7.83;;;5.50;;
23009;SDS011;11671;49.990;8.028;2022-11-15T14:48:11;10.38;;;5.70;;
23009;SDS011;11671;49.990;8.028;2022-11-15T14:53:02;10.48;;;5.20;;
23009;SDS011;11671;49.990;8.028;2022-11-15T14:55:30;11.95;;;5.95;;
23009;SDS011;11671;49.990;8.028;2022-11-15T14:57:58;9.20;;;5.82;;
23009;SDS011;11671;49.990;8.028;2022-11-15T15:02:52;8.80;;;5.25;;
23009;SDS011;11671;49.990;8.028;2022-11-15T15:05:19;8.75;;;5.95;;
23009;SDS011;11671;49.990;8.028;2022-11-15T15:07:59;9.38;;;5.72;;
23009;SDS011;11671;49.990;8.028;2022-11-15T15:12:52;9.73;;;6.68;;
23009;SDS011;11671;49.990;8.028;2022-11-15T15:17:47;8.85;;;5.20;;
23009;SDS011;11671;49.990;8.028;2022-11-15T15:22:38;8.95;;;5.10;;
23009;SDS011;11671;49.990;8.028;2022-11-15T15:25:47;7.22;;;4.78;;
23009;SDS011;11671;49.990;8.028;2022-11-15T15:27:55;6.75;;;5.05;;
23009;SDS011;11671;49.990;8.028;2022-11-15T15:32:48;7.63;;;5.38;;
23009;SDS011;11671;49.990;8.028;2022-11-15T15:37:40;10.88;;;5.50;;
23009;SDS011;11671;49.990;8.028;2022-11-15T15:40:10;10.10;;;5.07;;
23009;SDS011;11671;49.990;8.028;2022-11-15T15:42:45;8.63;;;5.20;;
23009;SDS011;11671;49.990;8.028;2022-11-15T15:45:11;8.55;;;5.95;;
23009;SDS011;11671;49.990;8.028;2022-11-15T15:47:37;25.42;;;16.75;;
23009;SDS011;11671;49.990;8.028;2022-11-15T15:52:58;16.92;;;10.60;;
23009;SDS011;11671;49.990;8.028;2022-11-15T15:55:24;81.65;;;45.60;;
23009;SDS011;11671;49.990;8.028;2022-11-15T15:57:51;15.38;;;8.10;;
23009;SDS011;11671;49.990;8.028;2022-11-15T16:00:17;23.33;;;12.48;;
23009;SDS011;11671;49.990;8.028;2022-11-15T16:02:48;8.38;;;5.45;;
23009;SDS011;11671;49.990;8.028;2022-11-15T16:07:39;7.95;;;5.00;;
23009;SDS011;11671;49.990;8.028;2022-11-15T16:12:40;10.93;;;6.28;;
23009;SDS011;11671;49.990;8.028;2022-11-15T16:17:33;7.63;;;5.20;;
23009;SDS011;11671;49.990;8.028;2022-11-15T16:20:02;9.73;;;5.68;;
23009;SDS011;11671;49.990;8.028;2022-11-15T16:22:28;8.20;;;5.32;;
23009;SDS011;11671;49.990;8.028;2022-11-15T16:27:20;8.27;;;4.97;;
23009;SDS011;11671;49.990;8.028;2022-11-15T16:29:46;10.23;;;5.20;;
23009;SDS011;11671;49.990;8.028;2022-11-15T16:32:13;9.95;;;5.20;;
23009;SDS011;11671;49.990;8.028;2022-11-15T16:34:39;10.07;;;5.05;;
23009;SDS011;11671;49.990;8.028;2022-11-15T16:39:33;16.60;;;7.45;;
23009;SDS011;11671;49.990;8.028;2022-11-15T16:44:24;13.25;;;5.15;;
23009;SDS011;11671;49.990;8.028;2022-11-15T16:46:51;8.82;;;4.70;;
23009;SDS011;11671;49.990;8.028;2022-11-15T16:51:46;10.07;;;5.13;;
23009;SDS011;11671;49.990;8.028;2022-11-15T16:54:13;13.45;;;6.05;;
23009;SDS011;11671;49.990;8.028;2022-11-15T16:59:05;7.20;;;4.93;;
23009;SDS011;11671;49.990;8.028;2022-11-15T17:01:32;12.20;;;5.57;;
23009;SDS011;11671;49.990;8.028;2022-11-15T17:03:59;12.52;;;5.68;;
23009;SDS011;11671;49.990;8.028;2022-11-15T17:06:41;10.80;;;5.60;;
23009;SDS011;11671;49.990;8.028;2022-11-15T17:09:17;11.90;;;4.70;;
23009;SDS011;11671;49.990;8.028;2022-11-15T17:11:44;8.30;;;5.30;;
23009;SDS011;11671;49.990;8.028;2022-11-15T17:14:11;6.90;;;4.70;;
23009;SDS011;11671;49.990;8.028;2022-11-15T17:19:06;9.23;;;5.15;;
23009;SDS011;11671;49.990;8.028;2022-11-15T17:21:35;8.48;;;5.32;;
23009;SDS011;11671;49.990;8.028;2022-11-15T17:26:27;9.07;;;5.25;;
23009;SDS011;11671;49.990;8.028;2022-11-15T17:31:21;8.43;;;4.45;;
23009;SDS011;11671;49.990;8.028;2022-11-15T17:36:12;8.05;;;5.20;;
23009;SDS011;11671;49.990;8.028;2022-11-15T17:41:06;13.82;;;5.18;;
23009;SDS011;11671;49.990;8.028;2022-11-15T17:43:39;12.35;;;5.22;;
23009;SDS011;11671;49.990;8.028;2022-11-15T17:46:15;9.02;;;4.88;;
23009;SDS011;11671;49.990;8.028;2022-11-15T17:48:43;8.57;;;5.10;;
23009;SDS011;11671;49.990;8.028;2022-11-15T17:51:10;10.93;;;4.97;;
23009;SDS011;11671;49.990;8.028;2022-11-15T17:53:43;8.13;;;4.80;;
23009;SDS011;11671;49.990;8.028;2022-11-15T17:56:10;9.57;;;5.22;;
23009;SDS011;11671;49.990;8.028;2022-11-15T17:58:38;7.10;;;4.03;;
23009;SDS011;11671;49.990;8.028;2022-11-15T18:05:57;13.50;;;7.85;;
23009;SDS011;11671;49.990;8.028;2022-11-15T18:10:48;14.57;;;6.95;;
23009;SDS011;11671;49.990;8.028;2022-11-15T18:15:39;16.30;;;7.03;;
23009;SDS011;11671;49.990;8.028;2022-11-15T18:20:30;8.63;;;5.13;;
23009;SDS011;11671;49.990;8.028;2022-11-15T18:25:21;18.27;;;9.65;;
23009;SDS011;11671;49.990;8.028;2022-11-15T18:30:18;11.70;;;6.97;;
23009;SDS011;11671;49.990;8.028;2022-11-15T18:35:09;10.82;;;5.95;;
23009;SDS011;11671;49.990;8.028;2022-11-15T18:37:35;13.15;;;6.97;;
23009;SDS011;11671;49.990;8.028;2022-11-15T18:42:26;12.45;;;6.32;;
23009;SDS011;11671;49.990;8.028;2022-11-15T18:44:54;9.07;;;6.25;;
23009;SDS011;11671;49.990;8.028;2022-11-15T18:49:45;29.92;;;17.65;;
23009;SDS011;11671;49.990;8.028;2022-11-15T18:54:36;24.60;;;14.10;;
23009;SDS011;11671;49.990;8.028;2022-11-15T18:59:27;23.60;;;11.90;;
23009;SDS011;11671;49.990;8.028;2022-11-15T19:04:19;15.05;;;9.63;;
23009;SDS011;11671;49.990;8.028;2022-11-15T19:06:46;15.13;;;9.90;;
23009;SDS011;11671;49.990;8.028;2022-11-15T19:09:14;17.75;;;10.57;;
23009;SDS011;11671;49.990;8.028;2022-11-15T19:11:42;14.45;;;8.75;;
23009;SDS011;11671;49.990;8.028;2022-11-15T19:14:12;14.18;;;9.57;;
23009;SDS011;11671;49.990;8.028;2022-11-15T19:16:41;15.20;;;9.63;;
23009;SDS011;11671;49.990;8.028;2022-11-15T19:19:15;18.63;;;8.95;;
23009;SDS011;11671;49.990;8.028;2022-11-15T19:21:42;16.45;;;8.60;;
23009;SDS011;11671;49.990;8.028;2022-11-15T19:26:37;13.30;;;7.00;;
23009;SDS011;11671;49.990;8.028;2022-11-15T19:29:04;14.63;;;7.95;;
23009;SDS011;11671;49.990;8.028;2022-11-15T19:31:34;14.18;;;7.93;;
23009;SDS011;11671;49.990;8.028;2022-11-15T19:36:29;14.93;;;8.70;;
23009;SDS011;11671;49.990;8.028;2022-11-15T19:38:56;17.08;;;9.25;;
23009;SDS011;11671;49.990;8.028;2022-11-15T19:41:24;13.93;;;8.43;;
23009;SDS011;11671;49.990;8.028;2022-11-15T19:46:16;16.85;;;10.32;;
23009;SDS011;11671;49.990;8.028;2022-11-15T19:48:44;19.75;;;11.77;;
23009;SDS011;11671;49.990;8.028;2022-11-15T19:53:36;15.07;;;8.63;;
23009;SDS011;11671;49.990;8.028;2022-11-15T19:58:29;11.45;;;8.02;;
23009;SDS011;11671;49.990;8.028;2022-11-15T20:03:29;12.65;;;8.02;;
23009;SDS011;11671;49.990;8.028;2022-11-15T20:06:05;15.73;;;8.60;;
23009;SDS011;11671;49.990;8.028;2022-11-15T20:08:33;15.75;;;8.90;;
23009;SDS011;11671;49.990;8.028;2022-11-15T20:13:24;15.20;;;7.78;;
23009;SDS011;11671;49.990;8.028;2022-11-15T20:15:54;11.60;;;7.78;;
23009;SDS011;11671;49.990;8.028;2022-11-15T20:18:20;14.75;;;8.63;;
23009;SDS011;11671;49.990;8.028;2022-11-15T20:20:48;14.80;;;8.43;;
23009;SDS011;11671;49.990;8.028;2022-11-15T20:23:14;13.57;;;8.55;;
23009;SDS011;11671;49.990;8.028;2022-11-15T20:28:13;16.05;;;7.90;;
23009;SDS011;11671;49.990;8.028;2022-11-15T20:30:42;12.40;;;7.50;;
23009;SDS011;11671;49.990;8.028;2022-11-15T20:33:09;17.55;;;7.70;;
23009;SDS011;11671;49.990;8.028;2022-11-15T20:38:00;12.25;;;8.07;;
23009;SDS011;11671;49.990;8.028;2022-11-15T20:42:52;12.48;;;8.05;;
23009;SDS011;11671;49.990;8.028;2022-11-15T20:45:17;15.65;;;8.10;;
23009;SDS011;11671;49.990;8.028;2022-11-15T20:50:12;10.15;;;7.68;;
23009;SDS011;11671;49.990;8.028;2022-11-15T20:55:03;14.77;;;8.55;;
23009;SDS011;11671;49.990;8.028;2022-11-15T20:59:54;14.75;;;8.07;;
23009;SDS011;11671;49.990;8.028;2022-11-15T21:04:45;13.68;;;8.30;;
23009;SDS011;11671;49.990;8.028;2022-11-15T21:09:36;16.50;;;8.07;;
23009;SDS011;11671;49.990;8.028;2022-11-15T21:12:21;16.35;;;8.75;;
23009;SDS011;11671;49.990;8.028;2022-11-15T21:17:13;13.50;;;8.75;;
23009;SDS011;11671;49.990;8.028;2022-11-15T21:19:40;11.90;;;8.10;;
23009;SDS011;11671;49.990;8.028;2022-11-15T21:22:07;14.23;;;8.35;;
23009;SDS011;11671;49.990;8.028;2022-11-15T21:24:33;15.93;;;8.68;;
23009;SDS011;11671;49.990;8.028;2022-11-15T21:29:25;16.10;;;8.65;;
23009;SDS011;11671;49.990;8.028;2022-11-15T21:31:52;15.70;;;9.45;;
23009;SDS011;11671;49.990;8.028;2022-11-15T21:36:44;16.98;;;9.93;;
23009;SDS011;11671;49.990;8.028;2022-11-15T21:41:35;16.52;;;9.13;;
23009;SDS011;11671;49.990;8.028;2022-11-15T21:46:27;14.73;;;9.07;;
23009;SDS011;11671;49.990;8.028;2022-11-15T21:48:54;12.35;;;8.73;;
23009;SDS011;11671;49.990;8.028;2022-11-15T21:51:20;13.80;;;8.68;;
23009;SDS011;11671;49.990;8.028;2022-11-15T21:56:12;12.85;;;8.95;;
23009;SDS011;11671;49.990;8.028;2022-11-15T22:01:04;12.88;;;8.20;;
23009;SDS011;11671;49.990;8.028;2022-11-15T22:03:49;14.07;;;9.75;;
23009;SDS011;11671;49.990;8.028;2022-11-15T22:08:40;15.82;;;9.20;;
23009;SDS011;11671;49.990;8.028;2022-11-15T22:13:32;15.02;;;9.93;;
23009;SDS011;11671;49.990;8.028;2022-11-15T22:18:23;15.00;;;9.10;;
23009;SDS011;11671;49.990;8.028;2022-11-15T22:21:09;13.43;;;9.57;;
23009;SDS011;11671;49.990;8.028;2022-11-15T22:23:36;14.80;;;9.23;;
23009;SDS011;11671;49.990;8.028;2022-11-15T22:28:28;13.55;;;8.48;;
23009;SDS011;11671;49.990;8.028;2022-11-15T22:33:21;10.30;;;7.07;;
23009;SDS011;11671;49.990;8.028;2022-11-15T22:35:48;13.00;;;8.27;;
23009;SDS011;11671;49.990;8.028;2022-11-15T22:38:15;22.33;;;11.70;;
23009;SDS011;11671;49.990;8.028;2022-11-15T22:40:41;14.18;;;9.38;;
23009;SDS011;11671;49.990;8.028;2022-11-15T22:43:08;13.25;;;9.15;;
23009;SDS011;11671;49.990;8.028;2022-11-15T22:45:36;15.60;;;10.00;;
23009;SDS011;11671;49.990;8.028;2022-11-15T22:50:30;13.75;;;8.43;;
23009;SDS011;11671;49.990;8.028;2022-11-15T22:55:21;11.55;;;7.82;;
23009;SDS011;11671;49.990;8.028;2022-11-15T23:00:13;14.70;;;8.52;;
23009;SDS011;11671;49.990;8.028;2022-11-15T23:02:40;10.38;;;8.20;;
23009;SDS011;11671;49.990;8.028;2022-11-15T23:05:06;10.77;;;8.23;;
23009;SDS011;11671;49.990;8.028;2022-11-15T23:09:58;16.92;;;8.48;;
23009;SDS011;11671;49.990;8.028;2022-11-15T23:12:43;15.73;;;8.68;;
23009;SDS011;11671;49.990;8.028;2022-11-15T23:15:28;15.27;;;7.93;;
23009;SDS011;11671;49.990;8.028;2022-11-15T23:18:13;16.20;;;8.07;;
23009;SDS011;11671;49.990;8.028;2022-11-15T23:23:05;14.00;;;8.52;;
23009;SDS011;11671;49.990;8.028;2022-11-15T23:27:56;13.38;;;8.35;;
23009;SDS011;11671;49.990;8.028;2022-11-15T23:33:05;12.82;;;9.57;;
23009;SDS011;11671;49.990;8.028;2022-11-15T23:35:55;11.88;;;8.88;;